Time;durP1;ratioP1;P1;durP2;ratioP2;P2;SDS_P1;SDS_P2;PMS_P1;PMS_P2;Temp;Humidity;BMP_temperature;BMP_pressure;BME280_temperature;BME280_humidity;BME280_pressure;Samples;Min_cycle;Max_cycle;Signal;HPM_P1;HPM_P2
2023/03/06 00:00:32;;;;;;;49.13;22.13;;;4.70;77.30;;;;;;5147883;27;20198;-77
2023/03/06 00:02:58;;;;;;;42.57;20.73;;;4.90;75.40;;;;;;5155218;27;20597;-77
2023/03/06 00:05:26;;;;;;;42.30;18.73;;;5.10;71.60;;;;;;5139205;27;20210;-78
2023/03/06 00:07:54;;;;;;;38.90;19.97;;;5.20;70.00;;;;;;5143078;27;20191;-77
2023/03/06 00:10:25;;;;;;;44.53;19.20;;;5.10;71.30;;;;;;5143110;27;20221;-79
2023/03/06 00:12:52;;;;;;;35.90;17.70;;;5.00;69.70;;;;;;5148468;27;20206;-77
2023/03/06 00:15:20;;;;;;;41.83;19.47;;;4.90;71.60;;;;;;5148545;27;20228;-79
2023/03/06 00:17:46;;;;;;;33.53;16.17;;;4.90;74.90;;;;;;5142818;27;20194;-79
2023/03/06 00:20:14;;;;;;;25.00;13.37;;;5.00;69.80;;;;;;5138669;27;20278;-77
2023/03/06 00:22:42;;;;;;;33.93;16.67;;;4.70;69.40;;;;;;5143707;27;20219;-78
2023/03/06 00:25:13;;;;;;;27.50;14.33;;;4.40;76.60;;;;;;5144127;27;20920;-77
2023/03/06 00:27:42;;;;;;;35.07;15.87;;;4.20;76.90;;;;;;5155139;27;20576;-77
2023/03/06 00:30:12;;;;;;;30.03;15.00;;;4.10;78.40;;;;;;5141927;27;20225;-77
2023/03/06 00:32:39;;;;;;;22.80;13.67;;;4.10;79.20;;;;;;5139927;27;20601;-77
2023/03/06 00:35:06;;;;;;;22.30;13.67;;;3.80;78.20;;;;;;5148060;27;20197;-78
2023/03/06 00:37:33;;;;;;;25.30;13.13;;;3.60;80.80;;;;;;5148661;27;20199;-76
2023/03/06 00:40:00;;;;;;;31.40;14.87;;;3.40;82.60;;;;;;5157692;27;20210;-77
2023/03/06 00:42:27;;;;;;;27.47;15.00;;;3.50;86.60;;;;;;5143338;27;20218;-77
2023/03/06 00:44:55;;;;;;;31.03;14.83;;;3.60;84.40;;;;;;5147180;27;20211;-75
2023/03/06 00:47:22;;;;;;;27.67;14.73;;;3.70;83.40;;;;;;5151387;27;20202;-77
2023/03/06 00:49:49;;;;;;;33.47;14.40;;;3.60;83.10;;;;;;5154338;27;20215;-75
2023/03/06 00:52:16;;;;;;;28.63;14.33;;;3.70;82.60;;;;;;5149627;27;20205;-76
2023/03/06 00:54:43;;;;;;;29.93;13.93;;;3.70;83.90;;;;;;5146396;27;20700;-78
2023/03/06 00:57:10;;;;;;;31.37;14.23;;;3.70;84.50;;;;;;5147840;27;20198;-75
2023/03/06 00:59:37;;;;;;;24.83;12.93;;;3.80;84.10;;;;;;5144952;27;20198;-76
2023/03/06 01:02:06;;;;;;;27.60;14.40;;;3.70;81.80;;;;;;5144052;27;20195;-75
2023/03/06 01:04:33;;;;;;;26.53;13.40;;;3.50;84.40;;;;;;5147735;27;20198;-76
2023/03/06 01:07:00;;;;;;;26.27;13.97;;;3.50;84.50;;;;;;5144793;27;20199;-77
2023/03/06 01:09:27;;;;;;;28.43;13.67;;;3.60;84.80;;;;;;5145832;27;20226;-75
2023/03/06 01:11:54;;;;;;;25.67;12.73;;;3.60;85.10;;;;;;5144785;27;20230;-75
2023/03/06 01:14:23;;;;;;;23.63;13.07;;;3.60;82.90;;;;;;5145916;27;20198;-75
2023/03/06 01:16:50;;;;;;;32.03;13.83;;;3.40;84.10;;;;;;5148275;27;20677;-78
2023/03/06 01:19:18;;;;;;;24.23;12.37;;;3.50;86.60;;;;;;5145127;27;20211;-75
2023/03/06 01:21:45;;;;;;;24.20;12.60;;;3.50;84.70;;;;;;5144573;27;20214;-79
2023/03/06 01:24:12;;;;;;;21.30;12.00;;;3.30;85.10;;;;;;5143473;27;20186;-76
2023/03/06 01:26:38;;;;;;;22.40;12.00;;;3.10;86.60;;;;;;5146713;27;20225;-75
2023/03/06 01:29:06;;;;;;;24.77;12.40;;;3.00;87.70;;;;;;5147214;27;20194;-75
2023/03/06 01:31:32;;;;;;;23.20;12.90;;;3.00;87.70;;;;;;5146803;27;20223;-77
2023/03/06 01:33:59;;;;;;;21.77;11.83;;;3.10;87.80;;;;;;5144581;27;20194;-75
2023/03/06 01:36:27;;;;;;;20.33;11.47;;;3.10;87.80;;;;;;5145208;27;20208;-78
2023/03/06 01:38:54;;;;;;;24.03;12.60;;;3.10;85.70;;;;;;5147933;27;21087;-80
2023/03/06 01:41:21;;;;;;;22.83;11.97;;;3.10;87.80;;;;;;5146767;27;20661;-77
2023/03/06 01:43:48;;;;;;;26.53;12.40;;;3.20;85.70;;;;;;5151670;27;20201;-76
2023/03/06 01:46:30;;;;;;;20.57;12.07;;;3.10;86.10;;;;;;5152267;27;20191;-76
2023/03/06 01:48:59;;;;;;;21.27;10.97;;;3.20;85.10;;;;;;5152158;27;20205;-77
2023/03/06 01:51:32;;;;;;;22.23;11.83;;;3.30;85.00;;;;;;5147138;27;20194;-77
2023/03/06 01:54:02;;;;;;;23.53;11.73;;;3.40;85.00;;;;;;5140668;27;20532;-77
2023/03/06 01:56:29;;;;;;;20.90;12.00;;;3.40;84.50;;;;;;5149485;27;20200;-79
2023/03/06 01:58:56;;;;;;;21.60;11.57;;;3.50;84.30;;;;;;5148866;27;20202;-76
2023/03/06 02:01:23;;;;;;;21.50;12.33;;;3.40;83.90;;;;;;5148501;27;20218;-76
2023/03/06 02:03:51;;;;;;;22.67;12.20;;;3.30;82.70;;;;;;5147515;27;20198;-77
2023/03/06 02:06:20;;;;;;;21.47;11.77;;;3.30;84.60;;;;;;5147035;27;20194;-76
2023/03/06 02:08:51;;;;;;;21.57;11.83;;;3.40;85.90;;;;;;5143590;27;20195;-77
2023/03/06 02:11:19;;;;;;;19.80;11.27;;;3.20;84.00;;;;;;5143704;27;20222;-76
2023/03/06 02:13:47;;;;;;;18.10;10.77;;;3.00;87.70;;;;;;5145451;27;20194;-76
2023/03/06 02:16:16;;;;;;;20.67;11.47;;;3.00;84.40;;;;;;5147195;27;21729;-76
2023/03/06 02:18:45;;;;;;;20.33;12.03;;;2.90;84.30;;;;;;5147626;27;20198;-77
2023/03/06 02:21:19;;;;;;;25.03;11.73;;;2.90;87.70;;;;;;5143678;27;20558;-76
2023/03/06 02:23:56;;;;;;;18.93;10.67;;;2.80;86.80;;;;;;5146908;27;20206;-77
2023/03/06 02:26:26;;;;;;;21.13;11.13;;;2.80;88.40;;;;;;5140206;27;20202;-77
2023/03/06 02:28:53;;;;;;;20.73;11.13;;;2.60;87.50;;;;;;5145403;27;20212;-78
2023/03/06 02:31:23;;;;;;;20.57;11.20;;;2.40;87.40;;;;;;5145935;27;20234;-76
2023/03/06 02:34:05;;;;;;;23.80;11.60;;;2.30;90.20;;;;;;5146936;27;20203;-76
2023/03/06 02:36:35;;;;;;;20.63;11.60;;;2.50;90.50;;;;;;5143361;27;20194;-78
2023/03/06 02:39:02;;;;;;;19.77;11.57;;;2.40;88.70;;;;;;5148192;27;20205;-76
2023/03/06 02:41:31;;;;;;;20.07;11.63;;;2.20;90.00;;;;;;5144547;27;20203;-78
2023/03/06 02:43:57;;;;;;;21.87;11.40;;;2.40;91.20;;;;;;5154175;27;20190;-76
2023/03/06 02:46:24;;;;;;;21.80;11.40;;;2.50;90.70;;;;;;5160469;27;20198;-76
2023/03/06 02:48:52;;;;;;;20.40;10.70;;;2.70;89.10;;;;;;5143393;27;20281;-76
2023/03/06 02:51:19;;;;;;;18.00;10.50;;;2.60;87.50;;;;;;5146622;27;20693;-77
2023/03/06 02:53:46;;;;;;;17.43;10.67;;;2.30;88.70;;;;;;5150150;27;20669;-76
2023/03/06 02:56:13;;;;;;;18.97;10.90;;;2.30;90.60;;;;;;5144808;27;20195;-76
2023/03/06 02:58:42;;;;;;;21.37;11.13;;;2.20;91.00;;;;;;5137926;27;20278;-76
2023/03/06 03:01:09;;;;;;;20.03;11.23;;;2.10;91.20;;;;;;5150688;27;20255;-76
2023/03/06 03:03:36;;;;;;;20.10;11.00;;;2.10;91.40;;;;;;5147050;27;20198;-76
2023/03/06 03:06:04;;;;;;;19.97;11.00;;;2.10;91.20;;;;;;5147721;27;20242;-76
2023/03/06 03:08:31;;;;;;;19.87;11.70;;;2.00;91.30;;;;;;5146924;27;20225;-78
2023/03/06 03:10:58;;;;;;;19.53;11.43;;;2.10;92.10;;;;;;5145862;27;20222;-76
2023/03/06 03:13:25;;;;;;;19.43;11.30;;;2.30;91.80;;;;;;5145330;27;20204;-77
2023/03/06 03:16:01;;;;;;;21.20;11.33;;;2.60;91.80;;;;;;5138100;27;20210;-76
2023/03/06 03:18:27;;;;;;;22.50;12.30;;;2.70;91.00;;;;;;5147531;27;20198;-77
2023/03/06 03:20:55;;;;;;;22.87;11.20;;;2.70;90.00;;;;;;5143563;27;20289;-76
2023/03/06 03:23:22;;;;;;;19.80;11.43;;;2.60;90.30;;;;;;5146983;27;20219;-76
2023/03/06 03:25:49;;;;;;;22.47;12.60;;;2.40;90.90;;;;;;5138800;27;20191;-75
2023/03/06 03:28:16;;;;;;;17.53;11.27;;;2.50;91.70;;;;;;5124790;27;20640;-76
2023/03/06 03:30:43;;;;;;;18.03;10.47;;;2.40;91.00;;;;;;5144478;27;20227;-75
2023/03/06 03:33:11;;;;;;;22.67;10.97;;;2.40;91.40;;;;;;5142318;27;20221;-76
2023/03/06 03:35:38;;;;;;;20.33;10.87;;;2.50;92.20;;;;;;5145169;27;20206;-77
2023/03/06 03:38:05;;;;;;;19.90;10.80;;;2.60;91.50;;;;;;5142571;27;20721;-75
2023/03/06 03:40:32;;;;;;;17.67;10.70;;;2.70;91.30;;;;;;5145870;27;20202;-79
2023/03/06 03:42:58;;;;;;;19.77;11.07;;;2.80;90.60;;;;;;5149862;27;20210;-80
2023/03/06 03:45:25;;;;;;;17.97;10.10;;;2.90;91.00;;;;;;5152256;27;20195;-75
2023/03/06 03:47:52;;;;;;;16.57;10.23;;;2.90;90.60;;;;;;5150119;27;20191;-75
2023/03/06 03:50:20;;;;;;;20.50;11.73;;;3.00;90.70;;;;;;5148059;27;20807;-75
2023/03/06 03:52:47;;;;;;;18.03;11.07;;;3.00;90.00;;;;;;5148201;27;20191;-75
2023/03/06 03:55:14;;;;;;;21.43;11.27;;;2.80;90.00;;;;;;5144821;27;20668;-76
2023/03/06 03:57:41;;;;;;;19.67;11.27;;;2.70;90.70;;;;;;5149059;27;20200;-78
2023/03/06 04:00:14;;;;;;;19.50;11.53;;;2.60;91.10;;;;;;5157256;27;20619;-76
2023/03/06 04:02:41;;;;;;;22.40;11.03;;;2.40;91.50;;;;;;5143557;27;20273;-76
2023/03/06 04:05:09;;;;;;;23.13;11.33;;;2.30;91.80;;;;;;5148085;27;20202;-77
2023/03/06 04:07:37;;;;;;;18.83;11.40;;;2.40;92.00;;;;;;5145647;27;20202;-77
2023/03/06 04:10:05;;;;;;;17.80;10.67;;;2.50;92.20;;;;;;5150733;27;20223;-76
2023/03/06 04:12:31;;;;;;;16.17;10.37;;;2.40;91.90;;;;;;5153291;27;20212;-75
2023/03/06 04:14:58;;;;;;;19.43;10.73;;;2.40;92.00;;;;;;5150575;27;20191;-76
2023/03/06 04:17:26;;;;;;;17.93;11.50;;;2.40;91.80;;;;;;5150714;27;20248;-75
2023/03/06 04:19:53;;;;;;;19.73;10.67;;;2.40;92.10;;;;;;5151655;27;20277;-77
2023/03/06 04:22:20;;;;;;;18.77;10.27;;;2.60;92.10;;;;;;5151481;27;20226;-76
2023/03/06 04:24:48;;;;;;;19.00;11.10;;;2.70;92.10;;;;;;5145036;27;20210;-76
2023/03/06 04:27:15;;;;;;;21.20;10.90;;;2.80;91.70;;;;;;5150754;27;20201;-76
2023/03/06 04:29:44;;;;;;;21.67;11.43;;;2.80;91.50;;;;;;5152033;27;20206;-78
2023/03/06 04:32:11;;;;;;;17.00;11.00;;;2.80;91.40;;;;;;5143237;27;20235;-75
2023/03/06 04:34:38;;;;;;;19.07;10.67;;;2.80;91.60;;;;;;5147534;27;20206;-76
2023/03/06 04:37:05;;;;;;;20.33;11.23;;;2.90;91.60;;;;;;5149035;27;20234;-76
2023/03/06 04:39:31;;;;;;;16.60;10.67;;;2.80;91.00;;;;;;5147915;27;20191;-76
2023/03/06 04:42:02;;;;;;;19.57;10.90;;;2.60;91.60;;;;;;5146569;27;20199;-78
2023/03/06 04:44:28;;;;;;;19.60;10.60;;;2.50;91.70;;;;;;5154062;27;20187;-76
2023/03/06 04:46:55;;;;;;;19.37;11.27;;;2.30;91.90;;;;;;5144212;27;20258;-76
2023/03/06 04:49:22;;;;;;;21.27;11.63;;;2.30;92.20;;;;;;5150436;27;20201;-76
2023/03/06 04:51:49;;;;;;;18.60;10.67;;;2.20;91.90;;;;;;5150968;27;20233;-76
2023/03/06 04:54:16;;;;;;;22.03;10.60;;;2.20;92.90;;;;;;5146074;27;20194;-75
2023/03/06 04:56:42;;;;;;;20.50;11.53;;;2.50;92.70;;;;;;5154612;27;20206;-76
2023/03/06 04:59:10;;;;;;;18.80;10.23;;;2.50;92.20;;;;;;5157738;27;20206;-76
2023/03/06 05:01:37;;;;;;;20.67;10.13;;;2.60;92.30;;;;;;5148827;27;20200;-76
2023/03/06 05:04:04;;;;;;;18.20;10.60;;;2.70;91.20;;;;;;5152042;27;20194;-76
2023/03/06 05:06:31;;;;;;;17.60;10.50;;;2.70;91.90;;;;;;5153130;27;20202;-77
2023/03/06 05:08:58;;;;;;;16.63;10.00;;;2.80;91.90;;;;;;5149249;27;20199;-75
2023/03/06 05:11:25;;;;;;;17.47;10.00;;;2.80;91.40;;;;;;5149654;27;20223;-76
2023/03/06 05:13:51;;;;;;;18.43;10.00;;;2.90;91.00;;;;;;5149292;27;20195;-75
2023/03/06 05:16:20;;;;;;;17.50;10.33;;;2.90;91.20;;;;;;5146669;27;20294;-76
2023/03/06 05:18:46;;;;;;;17.13;9.90;;;2.90;91.00;;;;;;5145553;27;20191;-75
2023/03/06 05:21:13;;;;;;;15.43;10.00;;;2.90;91.10;;;;;;5149036;27;20588;-74
2023/03/06 05:23:40;;;;;;;18.17;10.00;;;2.80;90.20;;;;;;5142457;27;20219;-74
2023/03/06 05:26:08;;;;;;;17.17;9.97;;;2.50;90.90;;;;;;5151473;27;20205;-74
2023/03/06 05:28:35;;;;;;;21.87;10.30;;;2.40;91.20;;;;;;5148262;27;20202;-75
2023/03/06 05:31:02;;;;;;;20.40;9.60;;;2.40;91.80;;;;;;5143604;27;21529;-75
2023/03/06 05:33:31;;;;;;;21.27;9.70;;;2.60;91.90;;;;;;5141828;27;20202;-75
2023/03/06 05:35:58;;;;;;;17.23;9.70;;;2.70;91.50;;;;;;5148391;27;20190;-75
2023/03/06 05:38:25;;;;;;;17.57;10.40;;;2.70;91.10;;;;;;5142286;27;20210;-76
2023/03/06 05:40:52;;;;;;;16.87;10.07;;;2.80;90.60;;;;;;5142875;27;20740;-78
2023/03/06 05:43:18;;;;;;;17.70;10.33;;;2.90;90.60;;;;;;5146629;27;20199;-75
2023/03/06 05:45:45;;;;;;;17.87;9.33;;;2.80;89.00;;;;;;5151702;27;20198;-75
2023/03/06 05:48:13;;;;;;;21.50;11.17;;;2.70;90.40;;;;;;5148236;27;20230;-75
2023/03/06 05:50:41;;;;;;;17.83;10.23;;;2.50;90.60;;;;;;5142828;27;20222;-75
2023/03/06 05:53:08;;;;;;;18.30;10.77;;;2.20;91.20;;;;;;5147791;27;20258;-74
2023/03/06 05:55:35;;;;;;;18.53;10.13;;;2.10;91.60;;;;;;5147407;27;20200;-74
2023/03/06 05:58:01;;;;;;;21.70;10.13;;;2.20;92.50;;;;;;5140893;27;20685;-75
2023/03/06 06:00:28;;;;;;;18.00;9.63;;;2.30;92.00;;;;;;5147240;27;20686;-75
2023/03/06 06:02:55;;;;;;;19.53;10.37;;;2.50;91.90;;;;;;5144770;27;20217;-78
2023/03/06 06:05:22;;;;;;;18.80;9.87;;;2.60;91.30;;;;;;5140695;27;20199;-75
2023/03/06 06:07:50;;;;;;;18.10;9.80;;;2.70;90.80;;;;;;5142762;27;20191;-75
2023/03/06 06:10:17;;;;;;;19.80;10.27;;;2.60;91.30;;;;;;5143120;27;20195;-74
2023/03/06 06:12:44;;;;;;;17.53;9.53;;;2.80;91.10;;;;;;5145730;27;20716;-74
2023/03/06 06:15:10;;;;;;;19.53;10.20;;;2.90;91.00;;;;;;5147246;27;20195;-74
2023/03/06 06:17:37;;;;;;;17.83;10.40;;;2.90;90.60;;;;;;5147369;27;20191;-77
2023/03/06 06:20:05;;;;;;;21.00;10.03;;;2.90;89.40;;;;;;5145440;27;20200;-74
2023/03/06 06:22:32;;;;;;;18.67;9.73;;;2.90;90.70;;;;;;5146687;27;20218;-76
2023/03/06 06:25:00;;;;;;;18.50;10.83;;;3.00;90.60;;;;;;5142262;27;20542;-74
2023/03/06 06:27:27;;;;;;;18.03;10.33;;;2.90;89.10;;;;;;5155112;27;20186;-75
2023/03/06 06:29:53;;;;;;;20.77;9.70;;;2.90;89.10;;;;;;5147216;27;20202;-75
2023/03/06 06:32:20;;;;;;;19.60;10.50;;;3.00;90.90;;;;;;5148870;27;20225;-78
2023/03/06 06:34:47;;;;;;;20.93;10.63;;;3.10;89.90;;;;;;5151848;27;20205;-76
2023/03/06 06:37:14;;;;;;;20.00;10.53;;;3.20;90.00;;;;;;5147553;27;20202;-77
2023/03/06 06:39:41;;;;;;;17.87;10.37;;;3.20;87.80;;;;;;5147499;27;20439;-79
2023/03/06 06:42:09;;;;;;;21.97;11.30;;;3.20;87.80;;;;;;5129922;27;20202;-76
2023/03/06 06:44:36;;;;;;;21.07;10.97;;;3.00;87.80;;;;;;5150125;27;20199;-78
2023/03/06 06:47:03;;;;;;;21.33;11.27;;;2.90;89.00;;;;;;5154135;27;20229;-77
2023/03/06 06:49:30;;;;;;;19.93;10.97;;;2.90;89.20;;;;;;5149811;27;20199;-77
2023/03/06 06:51:57;;;;;;;20.10;10.70;;;3.00;87.70;;;;;;5149920;27;20271;-77
2023/03/06 06:54:24;;;;;;;24.87;11.83;;;3.20;87.80;;;;;;5147314;27;20199;-76
2023/03/06 06:56:51;;;;;;;22.60;12.00;;;3.40;85.60;;;;;;5148463;27;20213;-77
2023/03/06 06:59:19;;;;;;;22.77;12.10;;;3.50;85.20;;;;;;5145930;27;20217;-77
2023/03/06 07:01:46;;;;;;;23.63;11.73;;;3.60;78.70;;;;;;5129250;27;20206;-79
2023/03/06 07:04:13;;;;;;;20.93;11.80;;;3.60;79.00;;;;;;5146007;27;20202;-78
2023/03/06 07:06:40;;;;;;;18.50;11.67;;;3.70;80.90;;;;;;5143812;27;20199;-77
2023/03/06 07:09:07;;;;;;;22.43;11.97;;;3.70;78.30;;;;;;5142357;27;20213;-76
2023/03/06 07:11:34;;;;;;;26.97;11.97;;;3.80;82.40;;;;;;5144812;27;20230;-75
2023/03/06 07:14:01;;;;;;;20.10;11.87;;;3.80;80.30;;;;;;5139391;27;20198;-78
2023/03/06 07:16:29;;;;;;;26.63;11.57;;;3.80;81.40;;;;;;5144678;27;20835;-75
2023/03/06 07:18:56;;;;;;;21.30;11.73;;;3.90;75.90;;;;;;5141681;27;20210;-75
2023/03/06 07:21:23;;;;;;;25.10;11.47;;;3.90;73.80;;;;;;5145800;27;20210;-74
2023/03/06 07:23:50;;;;;;;19.20;11.20;;;4.00;74.70;;;;;;5144427;27;20709;-77
2023/03/06 07:26:16;;;;;;;22.20;12.03;;;4.10;75.80;;;;;;5149586;27;20198;-74
2023/03/06 07:28:43;;;;;;;22.00;11.23;;;4.10;68.90;;;;;;5149130;27;20209;-75
2023/03/06 07:31:11;;;;;;;23.87;11.63;;;4.00;69.60;;;;;;5139790;27;20299;-76
2023/03/06 07:33:39;;;;;;;19.80;11.40;;;4.00;68.70;;;;;;5151031;27;20254;-75
2023/03/06 07:36:11;;;;;;;20.30;11.67;;;4.10;75.50;;;;;;5155868;27;20212;-77
2023/03/06 07:38:37;;;;;;;22.30;11.77;;;4.20;69.00;;;;;;5141346;27;20202;-77
2023/03/06 07:41:07;;;;;;;25.90;11.50;;;4.20;68.90;;;;;;5149182;27;20209;-78
2023/03/06 07:43:33;;;;;;;20.00;11.47;;;4.20;67.00;;;;;;5143207;27;20896;-77
2023/03/06 07:46:01;;;;;;;23.63;12.13;;;4.30;69.00;;;;;;5145147;27;20203;-78
2023/03/06 07:48:28;;;;;;;17.53;10.73;;;4.30;69.00;;;;;;5144765;27;20214;-77
2023/03/06 07:50:58;;;;;;;22.10;11.73;;;4.40;69.10;;;;;;5149706;27;20264;-78
2023/03/06 07:53:25;;;;;;;22.43;11.60;;;4.40;65.10;;;;;;5144829;27;20829;-78
2023/03/06 07:55:51;;;;;;;18.30;11.30;;;4.20;67.10;;;;;;5142979;27;20211;-77
2023/03/06 07:58:18;;;;;;;20.77;10.97;;;4.10;68.50;;;;;;5145148;27;20207;-77
2023/03/06 08:00:45;;;;;;;17.17;10.83;;;4.00;71.60;;;;;;5148171;27;20195;-78
2023/03/06 08:03:12;;;;;;;20.07;11.20;;;4.20;68.90;;;;;;5148299;27;20203;-77
2023/03/06 08:05:39;;;;;;;18.20;10.63;;;4.30;69.00;;;;;;5144221;27;20194;-77
2023/03/06 08:08:08;;;;;;;21.03;11.10;;;4.20;66.60;;;;;;5138815;27;20191;-77
2023/03/06 08:10:35;;;;;;;18.90;11.20;;;4.20;71.80;;;;;;5147491;27;20213;-77
2023/03/06 08:13:02;;;;;;;19.43;11.20;;;4.20;68.90;;;;;;5147646;27;20749;-76
2023/03/06 08:15:28;;;;;;;18.00;10.87;;;4.10;73.80;;;;;;5147806;27;20197;-77
2023/03/06 08:17:55;;;;;;;18.90;11.03;;;4.40;76.40;;;;;;5145527;27;20209;-76
2023/03/06 08:20:22;;;;;;;20.30;11.73;;;4.50;69.20;;;;;;5146065;27;20218;-77
2023/03/06 08:22:48;;;;;;;21.50;11.20;;;4.40;71.50;;;;;;5148187;27;20245;-77
2023/03/06 08:25:17;;;;;;;20.77;10.73;;;4.30;73.00;;;;;;5148942;27;20210;-79
2023/03/06 08:27:45;;;;;;;18.23;11.13;;;4.50;75.00;;;;;;5151461;27;20255;-76
2023/03/06 08:30:13;;;;;;;19.87;12.17;;;4.50;75.80;;;;;;5149118;27;20199;-77
2023/03/06 08:32:40;;;;;;;20.67;11.93;;;4.40;74.40;;;;;;5146987;27;20233;-78
2023/03/06 08:35:07;;;;;;;21.60;12.03;;;4.50;76.70;;;;;;5150160;27;20209;-80
2023/03/06 08:37:34;;;;;;;19.50;11.87;;;4.40;79.10;;;;;;5148067;27;20420;-77
2023/03/06 08:40:03;;;;;;;16.10;10.77;;;4.40;79.00;;;;;;5147765;27;20206;-78
2023/03/06 08:42:31;;;;;;;18.37;11.47;;;4.40;80.50;;;;;;5150272;27;20226;-77
2023/03/06 08:44:58;;;;;;;17.27;11.10;;;4.40;77.80;;;;;;5146094;27;20211;-79
2023/03/06 08:47:25;;;;;;;24.10;11.67;;;4.50;76.20;;;;;;5148085;27;20203;-77
2023/03/06 08:49:51;;;;;;;21.33;11.53;;;4.60;78.00;;;;;;5147249;27;20202;-76
2023/03/06 08:52:18;;;;;;;20.60;11.07;;;4.70;77.90;;;;;;5151416;27;20230;-77
2023/03/06 08:54:45;;;;;;;18.03;11.10;;;4.90;78.20;;;;;;5150365;27;20254;-78
2023/03/06 08:57:12;;;;;;;18.90;11.50;;;5.00;76.60;;;;;;5151249;27;20207;-76
2023/03/06 08:59:41;;;;;;;21.77;11.77;;;5.20;75.80;;;;;;5150046;27;20203;-79
2023/03/06 09:02:11;;;;;;;22.60;12.07;;;5.30;77.40;;;;;;5158650;27;20681;-77
2023/03/06 09:04:38;;;;;;;18.23;11.02;;;5.30;74.50;;;;;;5155753;27;20749;-79
2023/03/06 09:07:06;;;;;;;19.43;11.73;;;5.20;70.00;;;;;;5154899;27;20210;-78
2023/03/06 09:09:33;;;;;;;17.52;11.00;;;5.20;70.70;;;;;;5150473;27;20277;-78
2023/03/06 09:11:59;;;;;;;19.20;11.05;;;5.10;69.80;;;;;;5155505;27;20214;-77
2023/03/06 09:14:26;;;;;;;24.98;11.63;;;5.10;73.10;;;;;;5150441;27;20654;-77
2023/03/06 09:16:54;;;;;;;23.45;12.35;;;5.10;70.90;;;;;;5157394;27;20191;-78
2023/03/06 09:19:21;;;;;;;17.83;11.67;;;5.10;69.90;;;;;;5148972;27;20195;-78
2023/03/06 09:21:48;;;;;;;19.92;11.95;;;5.10;69.80;;;;;;5152097;27;20218;-77
2023/03/06 09:24:15;;;;;;;18.77;11.27;;;5.40;70.10;;;;;;5153071;27;20203;-77
2023/03/06 09:26:42;;;;;;;20.92;11.93;;;5.50;69.40;;;;;;5158260;27;20281;-77
2023/03/06 09:29:08;;;;;;;17.52;11.35;;;5.70;63.50;;;;;;5151394;27;20201;-78
2023/03/06 09:31:35;;;;;;;16.20;10.60;;;5.80;60.90;;;;;;5122271;27;20910;-80
2023/03/06 09:34:03;;;;;;;18.08;11.13;;;5.90;58.00;;;;;;5150932;27;20202;-80
2023/03/06 09:36:30;;;;;;;17.05;11.40;;;5.90;58.00;;;;;;5152010;27;20191;-76
2023/03/06 09:38:57;;;;;;;22.15;11.90;;;5.90;56.60;;;;;;5146228;27;20195;-77
2023/03/06 09:41:31;;;;;;;18.67;11.50;;;5.70;53.20;;;;;;5143336;27;20206;-79
2023/03/06 09:44:07;;;;;;;17.15;10.70;;;5.80;57.40;;;;;;5153068;27;20219;-80
2023/03/06 09:46:59;;;;;;;18.42;11.25;;;6.00;51.50;;;;;;5141380;27;20260;-79
2023/03/06 09:50:00;;;;;;;18.20;11.15;;;5.90;48.20;;;;;;5145111;27;20286;-77
2023/03/06 09:52:33;;;;;;;17.35;10.95;;;5.90;49.00;;;;;;5151488;27;20257;-80
2023/03/06 09:55:09;;;;;;;16.90;10.75;;;5.70;44.80;;;;;;5149532;27;20198;-81
2023/03/06 09:57:38;;;;;;;17.13;10.68;;;5.70;44.80;;;;;;5147785;27;20730;-79
2023/03/06 10:00:12;;;;;;;16.80;10.57;;;5.80;47.70;;;;;;5150118;27;20195;-81
2023/03/06 10:02:43;;;;;;;18.05;11.30;;;5.90;46.90;;;;;;5147597;27;20230;-78
2023/03/06 10:05:16;;;;;;;19.58;11.07;;;5.80;44.90;;;;;;5144071;27;20198;-77
2023/03/06 10:07:46;;;;;;;17.00;10.90;;;5.70;46.60;;;;;;5144836;27;20748;-83
2023/03/06 10:10:19;;;;;;;17.80;10.57;;;5.70;46.10;;;;;;5150707;27;20198;-83
2023/03/06 10:12:52;;;;;;;17.35;10.40;;;5.70;44.90;;;;;;5150502;27;20210;-79
2023/03/06 10:15:23;;;;;;;16.88;10.45;;;5.70;45.20;;;;;;5149121;27;20183;-77
2023/03/06 10:17:50;;;;;;;18.23;10.30;;;5.90;41.00;;;;;;5153626;27;20195;-81
2023/03/06 10:20:22;;;;;;;16.73;10.53;;;6.10;39.80;;;;;;5140211;27;20194;-79
2023/03/06 10:23:19;;;;;;;15.95;10.23;;;6.00;40.90;;;;;;5148664;27;20708;-79
2023/03/06 10:25:51;;;;;;;21.98;14.00;;;6.00;40.30;;;;;;5150121;27;20198;-80
2023/03/06 10:28:24;;;;;;;25.45;16.73;;;5.90;43.10;;;;;;5148990;27;20514;-81
2023/03/06 10:30:58;;;;;;;29.13;18.20;;;5.90;43.60;;;;;;5149380;27;20209;-79
2023/03/06 10:33:35;;;;;;;19.00;10.80;;;5.90;43.00;;;;;;5146262;27;20229;-77
2023/03/06 10:36:03;;;;;;;38.25;23.70;;;5.80;39.80;;;;;;5152477;27;20210;-80
2023/03/06 10:38:36;;;;;;;19.50;11.90;;;5.90;41.70;;;;;;5147725;27;20294;-77
2023/03/06 10:41:08;;;;;;;27.83;17.15;;;5.90;39.00;;;;;;5153809;27;20596;-77
2023/03/06 10:43:36;;;;;;;23.50;13.65;;;6.00;38.70;;;;;;5140701;27;20219;-81
2023/03/06 10:46:04;;;;;;;25.20;15.95;;;5.90;39.30;;;;;;5151266;27;20227;-79
2023/03/06 10:48:34;;;;;;;21.85;13.90;;;6.00;38.60;;;;;;5151118;27;20281;-79
2023/03/06 10:51:17;;;;;;;16.75;9.88;;;6.00;38.60;;;;;;5150085;27;20234;-77
2023/03/06 10:53:51;;;;;;;14.27;8.63;;;6.00;39.60;;;;;;5143733;27;20314;-78
2023/03/06 10:56:27;;;;;;;16.00;10.32;;;6.00;40.70;;;;;;5142629;27;20202;-76
2023/03/06 10:59:06;;;;;;;18.40;10.73;;;5.80;40.40;;;;;;5149043;27;20223;-76
2023/03/06 11:01:33;;;;;;;17.38;10.52;;;5.80;42.40;;;;;;5143465;27;20195;-79
2023/03/06 11:04:15;;;;;;;17.08;10.68;;;6.00;42.70;;;;;;5148956;27;20203;-81
2023/03/06 11:06:44;;;;;;;18.80;9.90;;;6.20;41.10;;;;;;5148240;27;20205;-80
2023/03/06 11:09:16;;;;;;;17.05;10.23;;;6.30;39.00;;;;;;5146959;27;20203;-82
2023/03/06 11:11:43;;;;;;;17.58;10.57;;;6.50;41.00;;;;;;5145124;27;20198;-79
2023/03/06 11:14:15;;;;;;;16.20;9.60;;;6.40;39.10;;;;;;5138378;27;20223;-78
2023/03/06 11:16:51;;;;;;;16.90;10.52;;;6.50;38.70;;;;;;5149726;27;20275;-79
2023/03/06 11:19:21;;;;;;;15.90;10.55;;;6.50;37.50;;;;;;5151004;27;20189;-77
2023/03/06 11:22:02;;;;;;;17.92;10.43;;;6.50;38.70;;;;;;5143554;27;21085;-78
2023/03/06 11:24:36;;;;;;;17.27;10.70;;;6.60;38.10;;;;;;5150342;27;20273;-79
2023/03/06 11:27:13;;;;;;;15.52;10.15;;;6.60;38.00;;;;;;5147493;27;20252;-80
2023/03/06 11:29:42;;;;;;;17.75;10.65;;;6.70;37.80;;;;;;5142734;27;20202;-78
2023/03/06 11:32:13;;;;;;;15.27;10.40;;;6.80;36.80;;;;;;5144649;27;20282;-80
2023/03/06 11:34:46;;;;;;;18.27;11.10;;;7.00;35.30;;;;;;5147577;27;20202;-78
2023/03/06 11:37:21;;;;;;;17.08;9.95;;;6.80;36.30;;;;;;5147139;27;20195;-78
2023/03/06 11:39:56;;;;;;;17.38;11.10;;;6.80;37.20;;;;;;5146365;27;20198;-79
2023/03/06 11:42:28;;;;;;;17.85;10.40;;;6.60;37.80;;;;;;5151460;27;20206;-79
2023/03/06 11:45:03;;;;;;;17.10;11.18;;;6.50;38.10;;;;;;5146469;27;20193;-78
2023/03/06 11:47:36;;;;;;;17.90;10.73;;;6.30;38.40;;;;;;5141617;27;20224;-77
2023/03/06 11:50:16;;;;;;;22.05;13.55;;;6.00;40.70;;;;;;5149590;27;20194;-82
2023/03/06 11:52:48;;;;;;;38.17;24.52;;;5.70;44.20;;;;;;5142457;27;20222;-77
2023/03/06 11:55:19;;;;;;;26.38;16.42;;;5.60;44.80;;;;;;5148817;27;20285;-78
2023/03/06 11:57:52;;;;;;;17.00;10.80;;;5.60;44.80;;;;;;5144582;27;20582;-80
2023/03/06 12:00:32;;;;;;;36.80;22.40;;;5.50;46.90;;;;;;5149499;27;20669;-78
2023/03/06 12:03:19;;;;;;;27.85;16.00;;;5.40;47.60;;;;;;5153131;27;20205;-78
2023/03/06 12:05:50;;;;;;;21.07;10.53;;;5.40;48.50;;;;;;5143347;27;20202;-77
2023/03/06 12:08:34;;;;;;;19.53;10.90;;;5.20;47.90;;;;;;5141981;27;20584;-77
2023/03/06 12:11:09;;;;;;;20.67;12.37;;;5.20;50.00;;;;;;5145276;27;20213;-76
2023/03/06 12:13:56;;;;;;;20.23;11.83;;;5.20;49.60;;;;;;5143058;27;20701;-76
2023/03/06 12:16:34;;;;;;;20.20;11.60;;;5.00;50.00;;;;;;5143842;27;20187;-77
2023/03/06 12:19:13;;;;;;;23.83;13.83;;;5.10;50.60;;;;;;5146170;27;20647;-83
2023/03/06 12:21:52;;;;;;;16.80;10.73;;;5.10;50.30;;;;;;5144901;27;20222;-78
2023/03/06 12:24:48;;;;;;;18.00;10.10;;;5.10;50.10;;;;;;5142168;27;20201;-77
2023/03/06 12:27:22;;;;;;;21.00;11.00;;;5.00;51.10;;;;;;5152823;27;20647;-77
2023/03/06 12:30:09;;;;;;;19.13;12.33;;;5.10;51.80;;;;;;5153717;27;20199;-77
2023/03/06 12:32:44;;;;;;;23.27;12.93;;;5.20;52.80;;;;;;5149970;27;20206;-77
2023/03/06 12:35:29;;;;;;;18.03;11.83;;;5.20;53.70;;;;;;5150855;27;20717;-77
2023/03/06 12:38:11;;;;;;;16.70;10.83;;;5.20;51.60;;;;;;5151360;27;20206;-76
2023/03/06 12:40:59;;;;;;;18.90;11.67;;;5.20;52.00;;;;;;5151294;27;20221;-76
2023/03/06 12:43:56;;;;;;;19.13;11.37;;;5.30;52.40;;;;;;5151639;27;20818;-76
2023/03/06 12:46:24;;;;;;;28.73;18.07;;;5.50;51.90;;;;;;5145665;27;20207;-78
2023/03/06 12:49:01;;;;;;;18.23;11.10;;;5.40;51.10;;;;;;5153132;27;20202;-76